Time;durP1;ratioP1;P1;durP2;ratioP2;P2;SDS_P1;SDS_P2;PMS_P1;PMS_P2;Temp;Humidity;BMP_temperature;BMP_pressure;BME280_temperature;BME280_humidity;BME280_pressure;Samples;Min_cycle;Max_cycle;Signal;HPM_P1;HPM_P2
2022/04/20 00:01:11;;;;;;;8.43;7.00;;;9.60;76.70;;;;;;5080685;28;20064;-61
2022/04/20 00:03:40;;;;;;;8.25;6.50;;;9.60;76.60;;;;;;5063080;28;20032;-61
2022/04/20 00:06:06;;;;;;;8.48;6.22;;;9.60;76.60;;;;;;5074415;28;20103;-60
2022/04/20 00:08:32;;;;;;;8.75;6.47;;;9.60;76.30;;;;;;5072507;28;20078;-61
2022/04/20 00:10:59;;;;;;;7.25;6.00;;;9.70;76.40;;;;;;5079030;28;20475;-60
2022/04/20 00:13:24;;;;;;;8.88;6.53;;;9.70;76.10;;;;;;5072168;28;20035;-61
2022/04/20 00:15:50;;;;;;;8.27;6.22;;;9.70;76.00;;;;;;5074296;28;20028;-60
2022/04/20 00:18:16;;;;;;;8.48;6.28;;;9.70;75.90;;;;;;5072870;28;20573;-60
2022/04/20 00:20:42;;;;;;;7.57;5.80;;;9.70;75.90;;;;;;5072704;28;20508;-61
2022/04/20 00:23:08;;;;;;;8.05;5.78;;;9.70;75.80;;;;;;5072428;28;20029;-60
2022/04/20 00:25:34;;;;;;;8.05;5.45;;;9.80;75.80;;;;;;5072677;28;20039;-61
2022/04/20 00:28:00;;;;;;;6.22;5.15;;;9.70;75.70;;;;;;5083487;28;20036;-60
2022/04/20 00:30:25;;;;;;;7.25;5.72;;;9.80;75.60;;;;;;5078945;28;20032;-61
2022/04/20 00:32:51;;;;;;;7.00;5.95;;;9.80;75.50;;;;;;5075082;28;20035;-60
2022/04/20 00:35:17;;;;;;;7.78;6.15;;;9.80;75.40;;;;;;5071939;28;20309;-60
2022/04/20 00:37:43;;;;;;;6.65;5.18;;;9.80;75.30;;;;;;5060179;28;20024;-60
2022/04/20 00:40:10;;;;;;;7.57;6.20;;;9.80;75.20;;;;;;5074814;28;20071;-60
2022/04/20 00:42:39;;;;;;;8.13;5.40;;;9.80;75.10;;;;;;5077368;28;20025;-60
2022/04/20 00:45:07;;;;;;;7.78;6.07;;;9.80;74.80;;;;;;5078161;28;20276;-61
2022/04/20 00:47:36;;;;;;;6.93;5.00;;;9.80;74.70;;;;;;5075235;28;20472;-60
2022/04/20 00:50:03;;;;;;;7.25;6.05;;;9.80;74.60;;;;;;5072455;28;20047;-61
2022/04/20 00:52:29;;;;;;;6.57;5.28;;;9.70;74.60;;;;;;5075779;28;20479;-61
2022/04/20 00:54:54;;;;;;;6.95;5.53;;;9.60;74.80;;;;;;5074190;28;20098;-60
2022/04/20 00:57:20;;;;;;;10.90;6.07;;;9.50;74.90;;;;;;5080254;28;20108;-60
2022/04/20 00:59:47;;;;;;;8.40;5.72;;;9.40;74.90;;;;;;5089787;28;20672;-60
2022/04/20 01:02:13;;;;;;;6.60;4.97;;;9.40;75.10;;;;;;5089648;28;20020;-60
2022/04/20 01:04:39;;;;;;;7.45;5.72;;;9.30;75.20;;;;;;5076207;28;20035;-60
2022/04/20 01:07:16;;;;;;;9.27;6.03;;;9.30;75.30;;;;;;5078373;28;20111;-60
2022/04/20 01:09:43;;;;;;;8.10;6.47;;;9.30;75.30;;;;;;5088512;28;20028;-60
2022/04/20 01:12:09;;;;;;;8.70;6.78;;;9.30;75.40;;;;;;5080662;28;20426;-60
2022/04/20 01:14:35;;;;;;;7.50;5.82;;;9.30;75.50;;;;;;5079524;28;20017;-61
2022/04/20 01:17:03;;;;;;;7.03;5.93;;;9.30;75.50;;;;;;5078228;28;20379;-60
2022/04/20 01:19:38;;;;;;;7.40;5.80;;;9.30;75.50;;;;;;5081573;28;20063;-60
2022/04/20 01:22:04;;;;;;;7.75;5.68;;;9.30;75.60;;;;;;5078506;28;20391;-61
2022/04/20 01:24:31;;;;;;;7.50;5.93;;;9.30;75.40;;;;;;5081060;28;20056;-60
2022/04/20 01:26:57;;;;;;;6.95;5.32;;;9.30;75.30;;;;;;5078462;28;20025;-60
2022/04/20 01:29:28;;;;;;;7.15;5.70;;;9.40;75.30;;;;;;5083584;28;20025;-61
2022/04/20 01:31:54;;;;;;;8.25;6.35;;;9.40;75.30;;;;;;5080108;28;20060;-60
2022/04/20 01:34:20;;;;;;;8.80;7.05;;;9.40;75.30;;;;;;5078014;28;20044;-61
2022/04/20 01:36:46;;;;;;;7.68;6.32;;;9.40;75.30;;;;;;5078360;28;20056;-60
2022/04/20 01:39:12;;;;;;;8.00;6.47;;;9.50;75.30;;;;;;5085575;28;20036;-60
2022/04/20 01:41:37;;;;;;;6.88;6.05;;;9.50;75.20;;;;;;5082195;28;20040;-60
2022/04/20 01:44:04;;;;;;;7.40;5.95;;;9.60;75.20;;;;;;5077672;28;20020;-61
2022/04/20 01:46:29;;;;;;;9.05;6.90;;;9.60;75.10;;;;;;5069003;28;20027;-60
2022/04/20 01:48:55;;;;;;;8.48;6.32;;;9.60;74.90;;;;;;5078131;28;20028;-61
2022/04/20 01:54:05;;;;;;;7.72;6.30;;;9.60;75.00;;;;;;5083121;28;20097;-60
2022/04/20 01:56:31;;;;;;;8.48;6.68;;;9.60;75.00;;;;;;5085985;28;20029;-60
2022/04/20 01:58:57;;;;;;;7.28;6.05;;;9.50;75.10;;;;;;5084399;28;20033;-60
2022/04/20 02:04:06;;;;;;;8.63;6.40;;;9.50;75.40;;;;;;5073057;28;20089;-60
2022/04/20 02:06:32;;;;;;;8.23;6.47;;;9.50;75.30;;;;;;5074789;28;20024;-60
2022/04/20 02:08:58;;;;;;;8.23;5.85;;;9.50;75.90;;;;;;5074770;28;20036;-59
2022/04/20 02:11:24;;;;;;;6.93;5.78;;;9.50;75.40;;;;;;5086463;28;20024;-61
2022/04/20 02:13:49;;;;;;;6.95;5.88;;;9.50;75.40;;;;;;5078086;28;20017;-61
2022/04/20 02:16:15;;;;;;;9.23;6.60;;;9.50;75.30;;;;;;5077475;28;20060;-60
2022/04/20 02:18:40;;;;;;;7.57;6.40;;;9.50;75.20;;;;;;5073707;28;20132;-61
2022/04/20 02:21:06;;;;;;;8.48;6.90;;;9.50;75.30;;;;;;5076580;28;20029;-60
2022/04/20 02:23:32;;;;;;;7.72;6.10;;;9.50;75.30;;;;;;5078871;28;20028;-60
2022/04/20 02:25:57;;;;;;;7.35;6.05;;;9.50;75.30;;;;;;5085822;28;20487;-60
2022/04/20 02:28:23;;;;;;;8.15;6.20;;;9.40;75.30;;;;;;5074413;28;20047;-60
2022/04/20 02:30:49;;;;;;;6.85;5.75;;;9.40;75.20;;;;;;5074507;28;20065;-61
2022/04/20 02:33:14;;;;;;;7.18;5.80;;;9.40;75.20;;;;;;5073888;28;20047;-60
2022/04/20 02:35:40;;;;;;;7.50;6.03;;;9.40;75.10;;;;;;5067955;28;20028;-60
2022/04/20 02:38:10;;;;;;;8.82;6.47;;;9.30;75.00;;;;;;5068443;28;20025;-60
2022/04/20 02:40:37;;;;;;;7.57;6.35;;;9.30;75.10;;;;;;5085558;28;20388;-60
2022/04/20 02:43:03;;;;;;;10.00;7.28;;;9.30;75.00;;;;;;5074624;28;20039;-60
2022/04/20 02:45:29;;;;;;;8.40;6.68;;;9.20;75.00;;;;;;5080194;28;20103;-60
2022/04/20 02:47:55;;;;;;;7.95;6.47;;;9.20;75.20;;;;;;5074173;28;20112;-60
2022/04/20 02:50:20;;;;;;;8.35;6.32;;;9.10;75.10;;;;;;5074406;28;20025;-61
2022/04/20 02:52:46;;;;;;;7.95;6.43;;;9.20;75.20;;;;;;5070407;28;20170;-60
2022/04/20 02:55:12;;;;;;;7.05;5.82;;;9.10;75.10;;;;;;5073565;28;20060;-61
2022/04/20 02:57:37;;;;;;;8.23;6.45;;;9.10;75.20;;;;;;5083600;28;20028;-60
2022/04/20 03:00:04;;;;;;;8.02;6.60;;;9.00;75.10;;;;;;5084012;28;20410;-60
2022/04/20 03:02:31;;;;;;;8.70;6.72;;;9.00;75.10;;;;;;5078266;28;20024;-60
2022/04/20 03:04:57;;;;;;;8.20;6.47;;;9.00;75.10;;;;;;5077889;28;20023;-61
2022/04/20 03:07:22;;;;;;;9.90;6.85;;;9.00;75.30;;;;;;5084701;28;20471;-60
2022/04/20 03:09:48;;;;;;;7.30;6.50;;;9.00;75.30;;;;;;5076414;28;20020;-60
2022/04/20 03:12:14;;;;;;;8.63;6.65;;;9.00;75.40;;;;;;5084530;28;20380;-61
2022/04/20 03:14:40;;;;;;;9.35;6.38;;;9.00;75.40;;;;;;5073220;28;20032;-60
2022/04/20 03:17:06;;;;;;;7.78;6.22;;;9.00;75.30;;;;;;5087417;28;20048;-59
2022/04/20 03:19:32;;;;;;;8.70;6.93;;;9.00;75.30;;;;;;5080934;28;20064;-60
2022/04/20 03:21:58;;;;;;;10.35;7.53;;;9.00;75.30;;;;;;5073184;28;20037;-61
2022/04/20 03:24:23;;;;;;;10.48;8.20;;;9.00;75.20;;;;;;5075883;28;20086;-61
2022/04/20 03:26:49;;;;;;;11.27;9.02;;;9.00;75.30;;;;;;5071832;28;20039;-60
2022/04/20 03:29:15;;;;;;;11.75;8.60;;;9.10;75.50;;;;;;5075251;28;20489;-60
2022/04/20 03:31:41;;;;;;;11.43;8.55;;;9.10;75.60;;;;;;5075819;28;20468;-61
2022/04/20 03:34:07;;;;;;;11.27;8.60;;;9.10;75.50;;;;;;5080393;28;20028;-60
2022/04/20 03:36:34;;;;;;;11.10;9.05;;;9.10;75.60;;;;;;5073483;28;20111;-60
2022/04/20 03:39:01;;;;;;;10.82;8.95;;;9.10;75.50;;;;;;5077400;28;20031;-60
2022/04/20 03:41:27;;;;;;;8.70;7.30;;;9.20;75.40;;;;;;5073083;28;20028;-61
2022/04/20 03:43:53;;;;;;;9.75;7.50;;;9.20;75.30;;;;;;5079483;28;20521;-61
2022/04/20 03:46:19;;;;;;;11.85;8.40;;;9.20;75.30;;;;;;5072935;28;20021;-60
2022/04/20 03:48:45;;;;;;;12.02;8.82;;;9.30;75.20;;;;;;5077833;28;20356;-61
2022/04/20 03:51:11;;;;;;;10.25;8.23;;;9.30;75.30;;;;;;5073391;28;20036;-61
2022/04/20 03:53:37;;;;;;;11.13;8.68;;;9.40;75.20;;;;;;5075830;28;20022;-61
2022/04/20 03:56:02;;;;;;;8.43;7.30;;;9.50;75.20;;;;;;5071026;28;20025;-61
2022/04/20 03:58:28;;;;;;;8.65;7.40;;;9.50;75.10;;;;;;5055576;28;20219;-61
2022/04/20 04:00:54;;;;;;;8.27;6.55;;;9.60;74.80;;;;;;5046264;28;20074;-61
2022/04/20 04:03:20;;;;;;;9.43;7.30;;;9.70;74.80;;;;;;5077318;28;20024;-61
2022/04/20 04:05:45;;;;;;;8.57;6.57;;;9.70;74.60;;;;;;5072877;28;20384;-61
2022/04/20 04:08:11;;;;;;;9.13;6.53;;;9.80;74.40;;;;;;5083952;28;20067;-61
2022/04/20 04:10:37;;;;;;;9.15;7.40;;;9.90;74.30;;;;;;5082098;28;20440;-60
2022/04/20 04:13:02;;;;;;;9.60;6.50;;;10.00;74.20;;;;;;5076259;28;20031;-61
2022/04/20 04:15:28;;;;;;;9.10;6.38;;;10.10;74.10;;;;;;5075236;28;20021;-61
2022/04/20 04:17:58;;;;;;;6.80;5.68;;;10.20;74.10;;;;;;5063517;28;20116;-61
2022/04/20 04:20:27;;;;;;;8.48;6.57;;;10.50;74.00;;;;;;5073641;28;20494;-61
2022/04/20 04:22:54;;;;;;;7.50;5.90;;;10.80;73.60;;;;;;5072554;28;20087;-61
2022/04/20 04:25:20;;;;;;;6.63;5.38;;;11.00;72.90;;;;;;5075363;28;20472;-61
2022/04/20 04:27:47;;;;;;;6.97;5.50;;;11.30;72.00;;;;;;5083410;28;20020;-61
2022/04/20 04:30:13;;;;;;;7.88;6.10;;;11.50;72.00;;;;;;5075697;28;20028;-61
2022/04/20 04:32:39;;;;;;;7.55;6.38;;;11.50;70.70;;;;;;5072509;28;20032;-61
2022/04/20 04:35:05;;;;;;;6.45;5.78;;;11.60;70.30;;;;;;5072090;28;20024;-61
2022/04/20 04:37:32;;;;;;;6.50;5.68;;;11.60;70.00;;;;;;5076881;28;20111;-61
2022/04/20 04:39:58;;;;;;;7.07;5.75;;;11.70;69.70;;;;;;5072210;28;20044;-60
2022/04/20 04:42:25;;;;;;;8.65;6.97;;;11.80;69.80;;;;;;5073695;28;20380;-61
2022/04/20 04:44:51;;;;;;;9.80;6.65;;;11.90;69.30;;;;;;5079816;28;20063;-61
2022/04/20 04:50:00;;;;;;;7.55;5.63;;;12.40;69.20;;;;;;5068772;28;20085;-61
2022/04/20 04:52:28;;;;;;;7.03;6.20;;;12.70;68.10;;;;;;5066104;28;20017;-61
2022/04/20 04:54:53;;;;;;;7.30;6.05;;;12.90;67.20;;;;;;5068003;28;20044;-60
2022/04/20 04:57:19;;;;;;;7.10;5.78;;;12.90;66.70;;;;;;5064965;28;20514;-60
2022/04/20 04:59:45;;;;;;;6.68;4.70;;;12.90;66.30;;;;;;5069243;28;20430;-61
2022/04/20 05:02:11;;;;;;;6.63;5.18;;;12.90;66.00;;;;;;5070475;28;20064;-61
2022/04/20 05:04:39;;;;;;;6.38;4.60;;;12.90;66.10;;;;;;5071980;28;20029;-61
2022/04/20 05:07:05;;;;;;;5.82;4.35;;;12.80;65.90;;;;;;5075805;28;20032;-61
2022/04/20 05:09:31;;;;;;;6.47;4.82;;;12.90;66.10;;;;;;5072337;28;20035;-61
2022/04/20 05:11:57;;;;;;;5.85;4.70;;;13.10;66.00;;;;;;5069520;28;20111;-61
2022/04/20 05:14:23;;;;;;;6.47;4.80;;;13.10;65.40;;;;;;5063965;28;20446;-61
2022/04/20 05:16:49;;;;;;;6.20;4.78;;;13.20;65.10;;;;;;5068402;28;20540;-60
2022/04/20 05:19:14;;;;;;;8.98;5.43;;;13.20;65.60;;;;;;5058947;28;20068;-60
2022/04/20 05:21:40;;;;;;;7.03;5.05;;;13.20;64.70;;;;;;5067160;28;20348;-60
2022/04/20 05:24:06;;;;;;;5.68;5.05;;;13.30;64.80;;;;;;5066769;28;20483;-60
2022/04/20 05:26:33;;;;;;;7.00;5.05;;;13.40;64.80;;;;;;5067780;28;20104;-60
2022/04/20 05:28:59;;;;;;;6.55;5.40;;;13.60;64.50;;;;;;5068078;28;20387;-61
2022/04/20 05:31:25;;;;;;;6.47;5.28;;;13.90;64.10;;;;;;5072655;28;20099;-61
2022/04/20 05:33:50;;;;;;;6.25;5.28;;;14.00;63.40;;;;;;5067342;28;20399;-61
2022/04/20 05:36:18;;;;;;;5.97;4.95;;;14.10;63.00;;;;;;5068191;28;20055;-60
2022/04/20 05:41:40;;;;;;;6.93;6.07;;;14.20;62.20;;;;;;5064702;28;20036;-61
2022/04/20 05:44:11;;;;;;;7.05;5.97;;;14.10;63.00;;;;;;5064331;28;20059;-61
2022/04/20 05:46:39;;;;;;;8.85;6.30;;;14.10;62.30;;;;;;5065948;28;20064;-60
2022/04/20 05:49:05;;;;;;;7.43;5.10;;;14.10;62.50;;;;;;5077011;28;20032;-61
2022/04/20 05:51:31;;;;;;;6.68;5.18;;;14.00;62.20;;;;;;5065748;28;20059;-60
2022/04/20 05:53:57;;;;;;;6.75;5.70;;;14.00;62.00;;;;;;5062608;28;20036;-61
2022/04/20 05:56:22;;;;;;;4.93;4.30;;;14.00;62.20;;;;;;5065036;28;20099;-61
2022/04/20 05:58:50;;;;;;;6.82;4.72;;;13.90;62.40;;;;;;5069513;28;20103;-60
2022/04/20 06:01:17;;;;;;;5.35;4.45;;;13.90;62.00;;;;;;5065331;28;20024;-61
2022/04/20 06:03:43;;;;;;;4.20;3.70;;;13.90;62.00;;;;;;5045153;28;20127;-61
2022/04/20 06:06:09;;;;;;;4.35;3.50;;;13.90;62.20;;;;;;5070059;28;20025;-61
2022/04/20 06:08:34;;;;;;;5.40;3.50;;;13.80;62.00;;;;;;5062718;28;20039;-60
2022/04/20 06:11:00;;;;;;;4.80;3.90;;;13.80;62.00;;;;;;5057737;28;20017;-61
2022/04/20 06:13:28;;;;;;;4.28;3.53;;;13.70;62.10;;;;;;5053778;28;20020;-61
2022/04/20 06:15:54;;;;;;;4.25;3.85;;;13.70;62.30;;;;;;5046783;28;21398;-61
2022/04/20 06:18:20;;;;;;;4.38;3.92;;;13.70;62.40;;;;;;5057836;28;20048;-61
2022/04/20 06:20:46;;;;;;;4.32;3.42;;;13.60;62.40;;;;;;5051799;28;20028;-61
2022/04/20 06:23:12;;;;;;;4.30;3.88;;;13.60;62.40;;;;;;5055790;28;20055;-59
2022/04/20 06:25:38;;;;;;;5.78;4.00;;;13.50;62.30;;;;;;5059007;28;20693;-59
2022/04/20 06:28:04;;;;;;;4.20;3.65;;;13.50;62.50;;;;;;5052813;28;20124;-60
2022/04/20 06:30:30;;;;;;;4.88;4.30;;;13.50;62.70;;;;;;5055137;28;20109;-57
2022/04/20 06:32:56;;;;;;;4.45;3.60;;;13.50;62.50;;;;;;5052791;28;20108;-60
2022/04/20 06:35:22;;;;;;;5.18;4.05;;;13.50;62.40;;;;;;5054832;28;20025;-61
2022/04/20 06:37:48;;;;;;;3.95;3.55;;;13.50;62.60;;;;;;5061809;28;20028;-60
2022/04/20 06:40:14;;;;;;;4.85;4.25;;;13.50;63.00;;;;;;5055204;28;20135;-61
2022/04/20 06:42:40;;;;;;;5.55;4.32;;;13.50;62.80;;;;;;5053084;28;20371;-61
2022/04/20 06:45:06;;;;;;;5.07;3.95;;;13.50;63.10;;;;;;5055352;28;20028;-59
2022/04/20 06:47:33;;;;;;;4.90;4.15;;;13.50;63.00;;;;;;5061339;28;20039;-60
2022/04/20 06:49:59;;;;;;;5.63;4.50;;;13.50;62.90;;;;;;5055989;28;20501;-60
2022/04/20 07:00:39;;;;;;;4.95;3.97;;;13.50;63.20;;;;;;5056278;28;20035;-61
2022/04/20 07:03:06;;;;;;;6.05;4.68;;;13.50;63.20;;;;;;5052068;28;20620;-60
2022/04/20 07:05:33;;;;;;;5.88;4.88;;;13.50;63.00;;;;;;5059100;28;20071;-60
2022/04/20 07:08:00;;;;;;;5.28;4.78;;;13.50;63.10;;;;;;5058612;28;20032;-60
2022/04/20 07:10:26;;;;;;;5.15;4.60;;;13.40;63.10;;;;;;5032622;28;20098;-60
2022/04/20 07:12:52;;;;;;;5.13;4.57;;;13.40;63.10;;;;;;5047938;28;20431;-60
2022/04/20 07:15:18;;;;;;;5.93;4.97;;;13.30;63.40;;;;;;5048336;28;20025;-60
2022/04/20 07:17:44;;;;;;;5.72;4.75;;;13.30;63.50;;;;;;5053783;28;20048;-61
2022/04/20 07:20:13;;;;;;;5.32;4.55;;;13.30;63.80;;;;;;5027870;28;20079;-60
2022/04/20 07:22:39;;;;;;;5.35;4.47;;;13.30;63.70;;;;;;5048543;28;20119;-60
2022/04/20 07:25:05;;;;;;;4.93;4.38;;;13.30;63.80;;;;;;5043952;28;21287;-59
2022/04/20 07:27:32;;;;;;;5.05;4.43;;;13.30;63.80;;;;;;5049064;28;20048;-60
2022/04/20 07:29:58;;;;;;;5.72;4.88;;;13.20;63.80;;;;;;5047862;28;20098;-60
2022/04/20 07:32:23;;;;;;;4.90;4.40;;;13.30;63.90;;;;;;5049104;28;20024;-60
2022/04/20 07:34:49;;;;;;;5.22;4.05;;;13.20;63.90;;;;;;5053452;28;20021;-61
2022/04/20 07:37:15;;;;;;;6.22;4.30;;;13.30;63.80;;;;;;5052401;28;20059;-60
2022/04/20 07:39:40;;;;;;;4.40;3.90;;;13.20;63.90;;;;;;5057063;28;20150;-61
2022/04/20 07:42:06;;;;;;;4.90;4.18;;;13.20;63.70;;;;;;5056098;28;20180;-60
2022/04/20 07:44:32;;;;;;;5.25;4.47;;;13.20;63.60;;;;;;5054503;28;20111;-59
2022/04/20 07:46:58;;;;;;;5.00;4.40;;;13.20;63.70;;;;;;5051859;28;20162;-60
2022/04/20 07:52:09;;;;;;;4.85;3.92;;;13.30;64.00;;;;;;5049465;28;20050;-59
2022/04/20 07:54:34;;;;;;;4.50;3.92;;;13.30;63.90;;;;;;5046227;28;20037;-60
2022/04/20 07:57:00;;;;;;;4.43;3.72;;;13.40;63.80;;;;;;5055105;28;20043;-59
2022/04/20 07:59:26;;;;;;;4.43;4.03;;;13.40;63.80;;;;;;5042705;28;20036;-59
2022/04/20 08:01:51;;;;;;;4.63;3.90;;;13.50;63.70;;;;;;5041921;28;20032;-59
2022/04/20 08:04:17;;;;;;;4.13;3.50;;;13.60;63.70;;;;;;5053735;28;20190;-59
2022/04/20 08:06:42;;;;;;;3.92;3.53;;;13.70;63.60;;;;;;5047489;28;20555;-59
2022/04/20 08:09:08;;;;;;;4.32;3.72;;;13.80;63.30;;;;;;5054704;28;20118;-59
2022/04/20 08:11:34;;;;;;;4.15;3.70;;;13.90;63.20;;;;;;5042802;28;20052;-57
2022/04/20 08:14:11;;;;;;;4.53;3.70;;;13.90;62.90;;;;;;5048169;28;20064;-60
2022/04/20 08:16:38;;;;;;;4.45;3.60;;;14.00;62.70;;;;;;5040004;28;20028;-58
2022/04/20 08:19:04;;;;;;;4.05;3.58;;;14.10;62.40;;;;;;5048405;28;20169;-60
2022/04/20 08:21:29;;;;;;;4.18;3.55;;;14.10;62.20;;;;;;5041945;28;20033;-57
2022/04/20 08:23:55;;;;;;;3.90;3.22;;;14.20;61.90;;;;;;5048245;28;20435;-58
2022/04/20 08:26:21;;;;;;;4.18;3.78;;;14.20;61.80;;;;;;5025815;28;20407;-59
2022/04/20 08:28:46;;;;;;;4.47;3.72;;;14.10;61.50;;;;;;5047715;28;20542;-58
2022/04/20 08:31:15;;;;;;;21.98;15.00;;;14.10;61.30;;;;;;5041647;28;20028;-62
2022/04/20 08:33:41;;;;;;;12.25;9.30;;;14.10;60.90;;;;;;5043998;28;20056;-60
2022/04/20 08:36:07;;;;;;;5.28;4.30;;;14.10;60.60;;;;;;5038301;28;20052;-59
2022/04/20 08:38:32;;;;;;;9.05;6.97;;;14.10;60.50;;;;;;5044288;28;20166;-60
2022/04/20 08:41:00;;;;;;;5.85;4.65;;;14.10;60.70;;;;;;5039873;28;20084;-59
2022/04/20 08:43:28;;;;;;;7.70;6.72;;;14.10;60.70;;;;;;5042338;28;20067;-60
2022/04/20 08:45:58;;;;;;;4.47;3.95;;;14.20;60.60;;;;;;5036332;28;20119;-61
2022/04/20 08:48:24;;;;;;;5.93;4.93;;;14.20;60.60;;;;;;5042856;28;20103;-61
2022/04/20 08:50:53;;;;;;;5.00;4.30;;;14.20;60.30;;;;;;5039546;28;20032;-60
2022/04/20 08:53:21;;;;;;;4.10;3.33;;;14.20;61.00;;;;;;5037957;28;20032;-59
2022/04/20 08:55:46;;;;;;;3.53;3.22;;;14.20;60.40;;;;;;5037679;28;20036;-60
2022/04/20 08:58:13;;;;;;;3.10;2.80;;;14.20;60.30;;;;;;5039657;28;20408;-60
2022/04/20 09:00:39;;;;;;;3.78;3.00;;;14.20;60.20;;;;;;5031448;28;20024;-59
2022/04/20 09:03:05;;;;;;;2.90;2.70;;;14.20;60.10;;;;;;5033673;28;20037;-60
2022/04/20 09:05:34;;;;;;;3.10;2.80;;;14.20;60.20;;;;;;5039158;28;20604;-59
2022/04/20 09:08:11;;;;;;;3.97;3.20;;;14.20;60.00;;;;;;5038864;28;20070;-59
2022/04/20 09:10:37;;;;;;;3.55;3.25;;;14.20;59.60;;;;;;5040980;28;20120;-61
2022/04/20 09:13:11;;;;;;;4.97;3.95;;;14.20;59.40;;;;;;5039415;28;20032;-58
2022/04/20 09:15:38;;;;;;;4.35;3.70;;;14.20;59.10;;;;;;5038191;28;20028;-61
2022/04/20 09:18:05;;;;;;;3.33;3.03;;;14.20;59.10;;;;;;5044248;28;21074;-61
2022/04/20 09:20:32;;;;;;;3.35;3.05;;;14.20;59.50;;;;;;5044578;28;20033;-60
2022/04/20 09:23:09;;;;;;;3.05;2.78;;;14.20;59.00;;;;;;5047753;28;20032;-60
2022/04/20 09:25:41;;;;;;;3.92;3.22;;;14.40;59.10;;;;;;5045213;28;20039;-60
2022/04/20 09:28:07;;;;;;;3.35;2.80;;;14.40;59.00;;;;;;5042359;28;20433;-60
2022/04/20 09:30:36;;;;;;;3.80;3.10;;;14.50;58.40;;;;;;5042234;28;24545;-60
2022/04/20 09:33:07;;;;;;;4.30;3.25;;;14.60;58.10;;;;;;5041480;28;20154;-60
2022/04/20 09:35:53;;;;;;;3.90;3.25;;;14.70;57.80;;;;;;5042760;28;20454;-60
2022/04/20 09:38:21;;;;;;;2.97;2.67;;;14.80;57.60;;;;;;5046528;28;20032;-60
2022/04/20 09:40:48;;;;;;;3.58;3.05;;;14.80;57.40;;;;;;5040233;28;20131;-62
2022/04/20 09:43:19;;;;;;;3.17;2.72;;;14.90;56.90;;;;;;5040633;28;20488;-61
2022/04/20 09:46:00;;;;;;;3.75;3.00;;;14.90;56.90;;;;;;5041867;28;20029;-60
2022/04/20 09:51:14;;;;;;;3.05;2.75;;;14.90;56.90;;;;;;5039422;28;19923;-60
2022/04/20 09:53:41;;;;;;;4.28;3.25;;;14.90;57.00;;;;;;5040757;28;20445;-61
2022/04/20 09:56:24;;;;;;;4.60;3.28;;;14.80;56.90;;;;;;5028633;28;20040;-61
2022/04/20 09:59:02;;;;;;;3.88;3.10;;;14.80;56.90;;;;;;5043801;28;20114;-61
2022/04/20 10:01:35;;;;;;;3.10;2.83;;;14.80;57.20;;;;;;5041390;28;20052;-60
2022/04/20 10:04:02;;;;;;;3.92;3.30;;;14.70;56.80;;;;;;5045276;28;20043;-60
2022/04/20 10:06:29;;;;;;;3.00;2.70;;;14.60;56.80;;;;;;5041713;28;20036;-59
2022/04/20 10:08:55;;;;;;;3.42;3.00;;;14.50;57.00;;;;;;5042692;28;20040;-60
2022/04/20 10:11:22;;;;;;;3.42;3.13;;;14.50;57.10;;;;;;5042022;28;20044;-61
2022/04/20 10:16:05;;;;;;;3.65;3.05;;;14.50;57.30;;;;;;5048909;28;20040;-59
2022/04/20 10:16:39;;;;;;;3.67;3.28;;;14.50;57.30;;;;;;5047797;28;20060;-60
2022/04/20 10:19:07;;;;;;;3.30;3.00;;;14.50;57.70;;;;;;5044431;28;20102;-60
2022/04/20 10:21:39;;;;;;;4.45;3.30;;;14.50;57.60;;;;;;5039919;28;20571;-61
2022/04/20 10:24:10;;;;;;;3.75;3.00;;;14.50;57.60;;;;;;5044114;28;20048;-60
2022/04/20 10:26:37;;;;;;;3.38;3.00;;;14.40;57.60;;;;;;5045458;28;20124;-61
2022/04/20 10:29:16;;;;;;;3.70;2.88;;;14.40;57.60;;;;;;5045856;28;20040;-58
2022/04/20 10:31:50;;;;;;;4.18;2.83;;;14.40;57.50;;;;;;5044587;28;20077;-58
2022/04/20 10:34:19;;;;;;;3.22;2.75;;;14.40;57.50;;;;;;5046383;28;20637;-60
2022/04/20 10:36:59;;;;;;;3.22;2.92;;;14.40;57.70;;;;;;5045469;28;20033;-60
2022/04/20 10:39:29;;;;;;;3.00;2.80;;;14.40;57.80;;;;;;5046588;28;20037;-59
2022/04/20 10:42:11;;;;;;;3.72;3.40;;;14.30;57.70;;;;;;5047215;28;20056;-60
2022/04/20 10:44:55;;;;;;;;;;;14.30;57.70;;;;;;5043074;28;20036;-57
2022/04/20 10:47:27;;;;;;;3.30;2.83;;;14.30;58.00;;;;;;5039418;28;19912;-60
2022/04/20 10:50:10;;;;;;;3.30;2.97;;;14.30;58.20;;;;;;5036797;28;20115;-58
2022/04/20 10:52:37;;;;;;;3.53;3.22;;;14.20;58.50;;;;;;5044433;28;20039;-59
2022/04/20 10:55:09;;;;;;;4.25;3.72;;;14.20;58.50;;;;;;5036874;28;20032;-58
2022/04/20 10:57:35;;;;;;;;;;;14.20;58.20;;;;;;5026755;28;20033;-59
2022/04/20 11:00:25;;;;;;;3.75;2.85;;;14.10;58.00;;;;;;5027009;28;19943;-58
2022/04/20 11:03:00;;;;;;;3.85;3.20;;;14.00;58.00;;;;;;5033487;28;20392;-61
2022/04/20 11:05:26;;;;;;;3.35;3.05;;;14.00;57.50;;;;;;5044788;28;20032;-58
2022/04/20 11:08:05;;;;;;;3.50;3.20;;;13.90;57.40;;;;;;5042114;28;20048;-58
2022/04/20 11:10:32;;;;;;;4.30;3.40;;;13.80;57.20;;;;;;5039601;28;20119;-58
2022/04/20 11:19:07;;;;;;;4.07;3.20;;;13.90;57.20;;;;;;5042639;28;20047;-58
2022/04/20 11:21:34;;;;;;;4.15;3.25;;;14.00;56.90;;;;;;5041457;28;21914;-58
2022/04/20 11:24:11;;;;;;;3.42;3.13;;;13.90;56.70;;;;;;5044642;28;20077;-58
2022/04/20 11:27:03;;;;;;;3.70;3.13;;;14.00;56.60;;;;;;5042280;28;20077;-59
2022/04/20 11:29:29;;;;;;;3.42;2.80;;;14.10;56.50;;;;;;5035299;28;20047;-58
2022/04/20 11:32:00;;;;;;;3.45;3.03;;;14.10;56.20;;;;;;5040285;28;20032;-57
2022/04/20 11:34:28;;;;;;;4.20;3.03;;;14.20;56.00;;;;;;5037778;28;20031;-57
2022/04/20 11:37:00;;;;;;;3.83;3.40;;;14.30;56.00;;;;;;5049639;28;20087;-58
2022/04/20 11:39:28;;;;;;;4.07;3.38;;;14.30;55.80;;;;;;5045823;28;20115;-57
2022/04/20 11:41:58;;;;;;;3.78;3.35;;;14.20;55.60;;;;;;5041325;28;20033;-59
2022/04/20 11:44:32;;;;;;;3.58;3.20;;;14.20;55.50;;;;;;5040402;28;20024;-58
2022/04/20 11:47:03;;;;;;;3.47;3.17;;;14.20;55.50;;;;;;5043529;28;20496;-59
2022/04/20 11:49:35;;;;;;;3.80;3.33;;;14.10;55.30;;;;;;5048929;28;20034;-58
2022/04/20 11:52:03;;;;;;;3.95;3.30;;;14.10;55.10;;;;;;5045034;28;20743;-59
2022/04/20 11:54:29;;;;;;;4.30;3.40;;;14.10;55.20;;;;;;5044231;28;20036;-59
2022/04/20 11:56:55;;;;;;;3.95;3.00;;;14.00;55.00;;;;;;5040707;28;20060;-59
2022/04/20 11:59:21;;;;;;;3.55;3.10;;;14.00;55.00;;;;;;5043477;28;20044;-60
2022/04/20 12:01:47;;;;;;;4.32;3.60;;;14.00;55.00;;;;;;5029081;28;20036;-61
2022/04/20 12:04:18;;;;;;;5.70;4.13;;;14.00;54.80;;;;;;5038337;28;20060;-59
2022/04/20 12:07:04;;;;;;;4.43;4.03;;;13.90;54.80;;;;;;5038870;28;21508;-60
2022/04/20 12:09:32;;;;;;;3.65;3.30;;;13.90;54.80;;;;;;5036303;28;20040;-59
2022/04/20 12:12:03;;;;;;;3.70;3.28;;;13.90;55.10;;;;;;5037796;28;20031;-59
2022/04/20 12:14:34;;;;;;;5.13;3.47;;;13.90;55.10;;;;;;5038586;28;20060;-59
2022/04/20 12:17:11;;;;;;;3.78;3.22;;;13.90;55.10;;;;;;5034391;28;20119;-58
2022/04/20 12:19:40;;;;;;;3.50;3.20;;;13.90;54.90;;;;;;5040824;28;20115;-58
2022/04/20 12:22:10;;;;;;;4.15;3.70;;;13.80;55.00;;;;;;5039492;28;20739;-59
2022/04/20 12:24:37;;;;;;;5.22;3.55;;;13.80;55.00;;;;;;5040565;28;20032;-58
2022/04/20 12:27:04;;;;;;;3.47;3.08;;;13.80;54.90;;;;;;5043907;28;20040;-58
2022/04/20 12:29:34;;;;;;;3.83;3.50;;;13.80;55.00;;;;;;5039711;28;20040;-58
2022/04/20 12:32:01;;;;;;;3.80;3.38;;;13.70;55.10;;;;;;5045695;28;20055;-59
2022/04/20 12:34:28;;;;;;;4.05;3.50;;;13.70;55.00;;;;;;5038514;28;20033;-58
2022/04/20 12:37:05;;;;;;;4.72;3.80;;;13.70;54.90;;;;;;5044167;28;21026;-58
2022/04/20 12:39:34;;;;;;;4.20;3.30;;;13.70;55.10;;;;;;5040562;28;20098;-58
2022/04/20 12:42:09;;;;;;;3.55;3.22;;;13.70;55.10;;;;;;5041951;28;20047;-58
2022/04/20 12:44:38;;;;;;;3.53;3.20;;;13.80;55.30;;;;;;5051318;28;20116;-58
2022/04/20 12:47:19;;;;;;;3.50;3.10;;;13.80;55.40;;;;;;5045322;28;20037;-60
2022/04/20 12:50:00;;;;;;;4.95;3.72;;;13.80;55.70;;;;;;5043404;28;20491;-58
2022/04/20 12:52:28;;;;;;;5.03;4.00;;;13.80;55.00;;;;;;5039383;28;20037;-59
2022/04/20 12:55:07;;;;;;;3.78;3.22;;;13.80;55.10;;;;;;5042259;28;20109;-59
2022/04/20 13:03:07;;;;;;;4.05;3.65;;;13.80;55.20;;;;;;5050794;28;20078;-60
2022/04/20 13:05:35;;;;;;;3.85;3.38;;;13.80;55.20;;;;;;5047200;28;20041;-60
2022/04/20 13:08:01;;;;;;;4.75;4.20;;;13.80;55.40;;;;;;5044518;28;20068;-58
2022/04/20 13:10:29;;;;;;;5.28;3.35;;;13.90;55.40;;;;;;5042340;28;20111;-59
2022/04/20 13:12:56;;;;;;;5.05;3.97;;;13.80;55.10;;;;;;5044304;28;20032;-59
2022/04/20 13:15:24;;;;;;;4.28;3.58;;;13.90;55.00;;;;;;5048340;28;20090;-59
2022/04/20 13:17:51;;;;;;;4.10;3.70;;;13.90;55.30;;;;;;5044005;28;20044;-60
2022/04/20 13:20:18;;;;;;;4.68;4.18;;;13.90;55.30;;;;;;5043927;28;20125;-59
2022/04/20 13:22:44;;;;;;;5.57;4.63;;;13.90;55.30;;;;;;5045826;28;20051;-60
2022/04/20 13:27:54;;;;;;;5.18;4.65;;;13.80;55.40;;;;;;5047967;28;20107;-61
2022/04/20 13:30:21;;;;;;;5.10;4.22;;;13.70;55.60;;;;;;5042350;28;20068;-59
2022/04/20 13:32:48;;;;;;;5.20;4.18;;;13.70;55.60;;;;;;5043104;28;21153;-59